createdAt,value
2018-11-21T00:00:38.077Z,0
2018-11-21T00:01:38.023Z,0
2018-11-21T00:02:38.053Z,0
2018-11-21T00:03:38.012Z,0
2018-11-21T00:04:38.041Z,0
2018-11-21T00:05:37.987Z,0
2018-11-21T00:06:37.998Z,0
2018-11-21T00:07:37.959Z,0
2018-11-21T00:08:37.962Z,0
2018-11-21T00:09:37.933Z,0
2018-11-21T00:10:37.902Z,0
2018-11-21T00:11:37.876Z,0
2018-11-21T00:12:37.899Z,0
2018-11-21T00:13:37.874Z,0
2018-11-21T00:14:37.637Z,0
2018-11-21T00:15:37.821Z,0
2018-11-21T00:16:37.843Z,0
2018-11-21T00:17:37.542Z,0
2018-11-21T00:18:37.831Z,0
2018-11-21T00:19:37.769Z,0
2018-11-21T00:20:37.564Z,0
2018-11-21T00:21:37.750Z,0
2018-11-21T00:22:37.760Z,0
2018-11-21T00:23:37.702Z,0
2018-11-21T00:24:37.700Z,0
2018-11-21T00:25:37.691Z,0
2018-11-21T00:26:37.697Z,0
2018-11-21T00:27:37.688Z,0
2018-11-21T00:28:37.635Z,0
2018-11-21T00:29:37.883Z,0
2018-11-21T00:30:37.598Z,0
2018-11-21T00:31:37.670Z,0
2018-11-21T00:32:37.596Z,0
2018-11-21T00:33:37.573Z,0
2018-11-21T00:34:37.575Z,0
2018-11-21T00:35:37.519Z,0
2018-11-21T00:36:37.560Z,0
2018-11-21T00:37:37.515Z,0
2018-11-21T00:38:37.518Z,0
2018-11-21T00:39:37.470Z,0
2018-11-21T00:40:37.456Z,0
2018-11-21T00:41:37.452Z,0
2018-11-21T00:42:38.109Z,0
2018-11-21T00:43:37.196Z,0
2018-11-21T00:44:37.402Z,0
2018-11-21T00:45:37.400Z,0
2018-11-21T00:46:37.358Z,0
2018-11-21T00:47:37.392Z,0
2018-11-21T00:48:37.339Z,0
2018-11-21T00:49:37.364Z,0
2018-11-21T00:50:37.307Z,0
2018-11-21T00:51:37.330Z,0
2018-11-21T00:52:37.266Z,0
2018-11-21T00:53:37.273Z,0
2018-11-21T00:54:37.261Z,0
2018-11-21T00:55:37.283Z,0
2018-11-21T00:56:37.643Z,0
2018-11-21T00:57:37.506Z,0
2018-11-21T00:58:37.207Z,0
2018-11-21T00:59:37.207Z,0
2018-11-21T01:00:37.409Z,0
2018-11-21T01:01:37.166Z,0
2018-11-21T01:02:37.111Z,0
2018-11-21T01:03:37.146Z,0
2018-11-21T01:04:37.100Z,0
2018-11-21T01:05:37.131Z,0
2018-11-21T01:06:37.089Z,0
2018-11-21T01:07:37.094Z,0
2018-11-21T01:08:37.014Z,0
2018-11-21T01:09:37.037Z,0
2018-11-21T01:10:36.756Z,0
2018-11-21T01:11:37.029Z,0
2018-11-21T01:12:36.986Z,0
2018-11-21T01:13:36.973Z,0
2018-11-21T01:14:36.981Z,0
2018-11-21T01:15:36.974Z,0
2018-11-21T01:16:36.920Z,0
2018-11-21T01:17:36.909Z,0
2018-11-21T01:18:36.875Z,0
2018-11-21T01:19:36.904Z,0
2018-11-21T01:20:36.871Z,0
2018-11-21T01:21:36.889Z,0
2018-11-21T01:22:36.826Z,0
2018-11-21T01:23:36.850Z,0
2018-11-21T01:24:36.793Z,0
2018-11-21T01:25:36.795Z,0
2018-11-21T01:26:36.790Z,0
2018-11-21T01:27:36.812Z,0
2018-11-21T01:28:36.733Z,0
2018-11-21T01:29:36.729Z,0
2018-11-21T01:30:36.735Z,0
2018-11-21T01:31:36.743Z,0
2018-11-21T01:32:36.930Z,0
2018-11-21T01:33:36.693Z,0
2018-11-21T01:34:36.636Z,0
2018-11-21T01:35:36.686Z,0
2018-11-21T01:36:36.608Z,0
2018-11-21T01:37:36.639Z,0
2018-11-21T01:38:36.575Z,0
2018-11-21T01:39:36.612Z,0
2018-11-21T01:40:36.536Z,0
2018-11-21T01:41:36.546Z,0
2018-11-21T01:42:36.517Z,0
2018-11-21T01:43:36.553Z,0
2018-11-21T01:44:36.513Z,0
2018-11-21T01:45:36.501Z,0
2018-11-21T01:46:36.470Z,0
2018-11-21T01:47:36.436Z,0
2018-11-21T01:48:36.453Z,0
2018-11-21T01:49:36.435Z,0
2018-11-21T01:50:36.400Z,0
2018-11-21T01:51:36.427Z,0
2018-11-21T01:52:36.372Z,0
2018-11-21T01:53:36.396Z,0
2018-11-21T01:54:36.340Z,0
2018-11-21T01:55:36.366Z,0
2018-11-21T01:56:36.293Z,0
2018-11-21T01:57:36.313Z,0
2018-11-21T01:58:36.279Z,0
2018-11-21T01:59:36.312Z,0
2018-11-21T02:00:36.273Z,0
2018-11-21T02:01:36.250Z,0
2018-11-21T02:02:36.228Z,0
2018-11-21T02:03:36.457Z,0
2018-11-21T02:04:36.216Z,0
2018-11-21T02:05:36.194Z,0
2018-11-21T02:06:36.206Z,0
2018-11-21T02:07:36.138Z,0
2018-11-21T02:08:36.152Z,0
2018-11-21T02:09:36.098Z,0
2018-11-21T02:10:36.126Z,0
2018-11-21T02:11:36.080Z,0
2018-11-21T02:12:36.110Z,0
2018-11-21T02:13:36.062Z,0
2018-11-21T02:14:36.064Z,0
2018-11-21T02:15:36.012Z,0
2018-11-21T02:16:36.031Z,0
2018-11-21T02:17:36.010Z,0
2018-11-21T02:18:35.972Z,0
2018-11-21T02:19:35.953Z,0
2018-11-21T02:20:35.975Z,0
2018-11-21T02:21:35.947Z,0
2018-11-21T02:22:35.961Z,0
2018-11-21T02:23:35.891Z,0
2018-11-21T02:24:35.923Z,0
2018-11-21T02:25:35.851Z,0
2018-11-21T02:26:35.894Z,0
2018-11-21T02:27:35.833Z,0
2018-11-21T02:28:35.869Z,0
2018-11-21T02:29:35.871Z,0
2018-11-21T02:30:35.831Z,0
2018-11-21T02:31:35.771Z,0
2018-11-21T02:32:35.778Z,0
2018-11-21T02:33:35.763Z,0
2018-11-21T02:34:36.016Z,0
2018-11-21T02:35:35.760Z,0
2018-11-21T02:36:35.706Z,0
2018-11-21T02:37:35.724Z,0
2018-11-21T02:38:35.655Z,0
2018-11-21T02:39:35.715Z,0
2018-11-21T02:40:35.640Z,0
2018-11-21T02:41:35.638Z,0
2018-11-21T02:42:35.637Z,0
2018-11-21T02:43:35.610Z,0
2018-11-21T02:44:35.624Z,0
2018-11-21T02:45:35.578Z,0
2018-11-21T02:46:35.630Z,0
2018-11-21T02:47:35.528Z,0
2018-11-21T02:48:35.527Z,0
2018-11-21T02:49:35.523Z,0
2018-11-21T02:50:35.537Z,0
2018-11-21T02:51:35.512Z,0
2018-11-21T02:52:35.457Z,0
2018-11-21T02:53:35.468Z,0
2018-11-21T02:54:35.414Z,0
2018-11-21T02:55:35.195Z,0
2018-11-21T02:56:35.400Z,0
2018-11-21T02:57:35.426Z,0
2018-11-21T02:58:35.365Z,0
2018-11-21T02:59:35.395Z,0
2018-11-21T03:00:35.332Z,0
2018-11-21T03:01:35.338Z,0
2018-11-21T03:02:35.049Z,0
2018-11-21T03:03:35.332Z,0
2018-11-21T03:04:35.307Z,0
2018-11-21T03:05:35.523Z,0
2018-11-21T03:06:35.253Z,0
2018-11-21T03:07:35.266Z,0
2018-11-21T03:08:35.215Z,0
2018-11-21T03:09:35.208Z,0
2018-11-21T03:10:35.172Z,0
2018-11-21T03:11:35.205Z,0
2018-11-21T03:12:35.148Z,0
2018-11-21T03:13:37.978Z,0
2018-11-21T03:14:35.119Z,0
2018-11-21T03:15:35.144Z,0
2018-11-21T03:16:35.072Z,0
2018-11-21T03:17:35.088Z,0
2018-11-21T03:18:35.054Z,0
2018-11-21T03:19:35.092Z,0
2018-11-21T03:20:35.051Z,0
2018-11-21T03:21:35.025Z,0
2018-11-21T03:22:34.997Z,0
2018-11-21T03:23:34.972Z,0
2018-11-21T03:24:34.990Z,0
2018-11-21T03:25:34.978Z,0
2018-11-21T03:26:34.996Z,0
2018-11-21T03:27:34.911Z,0
2018-11-21T03:28:34.927Z,0
2018-11-21T03:29:34.878Z,0
2018-11-21T03:30:34.915Z,0
2018-11-21T03:31:34.870Z,0
2018-11-21T03:32:34.897Z,0
2018-11-21T03:33:34.845Z,0
2018-11-21T03:34:34.564Z,0
2018-11-21T03:35:34.839Z,0
2018-11-21T03:36:35.064Z,0
2018-11-21T03:37:34.791Z,0
2018-11-21T03:38:34.747Z,0
2018-11-21T03:39:34.732Z,0
2018-11-21T03:40:34.761Z,0
2018-11-21T03:41:34.715Z,0
2018-11-21T03:42:34.777Z,0
2018-11-21T03:43:34.664Z,0
2018-11-21T03:44:34.684Z,0
2018-11-21T03:45:34.632Z,0
2018-11-21T03:46:34.659Z,0
2018-11-21T03:47:34.611Z,0
2018-11-21T03:48:34.648Z,0
2018-11-21T03:49:34.348Z,0
2018-11-21T03:50:34.599Z,0
2018-11-21T03:51:34.547Z,0
2018-11-21T03:52:34.537Z,0
2018-11-21T03:53:34.568Z,0
2018-11-21T03:54:34.276Z,0
2018-11-21T03:55:34.534Z,0
2018-11-21T03:56:34.472Z,0
2018-11-21T03:57:34.211Z,0
2018-11-21T03:58:34.476Z,0
2018-11-21T03:59:34.163Z,0
2018-11-21T04:00:34.435Z,0
2018-11-21T04:01:34.384Z,0
2018-11-21T04:02:34.407Z,0
2018-11-21T04:03:34.106Z,0
2018-11-21T04:04:34.396Z,0
2018-11-21T04:05:34.343Z,0
2018-11-21T04:06:34.350Z,0
2018-11-21T04:07:34.284Z,0
2018-11-21T04:08:34.545Z,0
2018-11-21T04:09:34.290Z,0
2018-11-21T04:10:34.284Z,0
2018-11-21T04:11:34.285Z,0
2018-11-21T04:12:34.238Z,0
2018-11-21T04:13:34.222Z,0
2018-11-21T04:14:34.193Z,0
2018-11-21T04:15:34.215Z,0
2018-11-21T04:16:34.172Z,0
2018-11-21T04:17:34.192Z,0
2018-11-21T04:18:33.883Z,0
2018-11-21T04:19:34.174Z,0
2018-11-21T04:20:34.097Z,0
2018-11-21T04:21:34.106Z,0
2018-11-21T04:22:34.078Z,0
2018-11-21T04:23:34.100Z,0
2018-11-21T04:24:34.043Z,0
2018-11-21T04:25:34.033Z,0
2018-11-21T04:26:34.039Z,0
2018-11-21T04:27:34.039Z,0
2018-11-21T04:28:33.976Z,0
2018-11-21T04:29:33.982Z,0
2018-11-21T04:30:33.938Z,0
2018-11-21T04:31:33.987Z,0
2018-11-21T04:32:33.918Z,0
2018-11-21T04:33:34.016Z,0
2018-11-21T04:34:33.887Z,0
2018-11-21T04:35:33.919Z,0
2018-11-21T04:36:33.854Z,0
2018-11-21T04:37:33.860Z,0
2018-11-21T04:38:33.855Z,0
2018-11-21T04:39:34.046Z,0
2018-11-21T04:40:33.794Z,0
2018-11-21T04:41:33.800Z,0
2018-11-21T04:42:33.789Z,0
2018-11-21T04:43:33.793Z,0
2018-11-21T04:44:33.479Z,0
2018-11-21T04:45:33.755Z,0
2018-11-21T04:46:33.689Z,0
2018-11-21T04:47:33.734Z,0
2018-11-21T04:48:33.674Z,0
2018-11-21T04:49:33.661Z,0
2018-11-21T04:50:33.670Z,0
2018-11-21T04:51:33.604Z,0
2018-11-21T04:52:33.645Z,0
2018-11-21T04:53:33.613Z,0
2018-11-21T04:54:33.620Z,0
2018-11-21T04:55:33.541Z,0
2018-11-21T04:56:33.549Z,0
2018-11-21T04:57:33.535Z,0
2018-11-21T04:58:33.553Z,0
2018-11-21T04:59:33.536Z,0
2018-11-21T05:00:33.482Z,0
2018-11-21T05:01:33.475Z,0
2018-11-21T05:02:33.431Z,0
2018-11-21T05:03:33.494Z,0
2018-11-21T05:04:33.172Z,0
2018-11-21T05:05:33.460Z,0
2018-11-21T05:06:33.395Z,0
2018-11-21T05:07:33.418Z,0
2018-11-21T05:08:33.349Z,0
2018-11-21T05:09:33.359Z,0
2018-11-21T05:10:33.575Z,0
2018-11-21T05:11:33.357Z,0
2018-11-21T05:12:33.329Z,0
2018-11-21T05:13:33.302Z,0
2018-11-21T05:14:33.257Z,0
2018-11-21T05:15:33.293Z,0
2018-11-21T05:16:32.980Z,0
2018-11-21T05:17:33.264Z,0
2018-11-21T05:18:33.184Z,0
2018-11-21T05:19:33.221Z,0
2018-11-21T05:20:33.174Z,0
2018-11-21T05:21:33.198Z,0
2018-11-21T05:22:33.137Z,0
2018-11-21T05:23:33.171Z,0
2018-11-21T05:24:33.094Z,0
2018-11-21T05:25:33.113Z,0
2018-11-21T05:26:33.076Z,0
2018-11-21T05:27:33.103Z,0
2018-11-21T05:28:32.814Z,0
2018-11-21T05:29:33.050Z,0
2018-11-21T05:30:33.016Z,0
2018-11-21T05:31:32.990Z,0
2018-11-21T05:32:33.035Z,0
2018-11-21T05:33:32.733Z,0
2018-11-21T05:34:32.998Z,0
2018-11-21T05:35:32.927Z,0
2018-11-21T05:36:32.952Z,0
2018-11-21T05:37:32.896Z,0
2018-11-21T05:38:32.922Z,0
2018-11-21T05:39:32.871Z,0
2018-11-21T05:40:32.897Z,0
2018-11-21T05:41:33.114Z,0
2018-11-21T05:42:32.824Z,0
2018-11-21T05:43:32.869Z,0
2018-11-21T05:44:38.507Z,0
2018-11-21T05:45:32.804Z,0
2018-11-21T05:46:32.766Z,0
2018-11-21T05:47:32.750Z,0
2018-11-21T05:48:32.764Z,0
2018-11-21T05:49:32.740Z,0
2018-11-21T05:50:32.757Z,0
2018-11-21T05:51:32.685Z,0
2018-11-21T05:52:32.718Z,0
2018-11-21T05:53:32.644Z,0
2018-11-21T05:54:32.689Z,0
2018-11-21T05:55:32.628Z,0
2018-11-21T05:56:32.664Z,0
2018-11-21T05:57:32.620Z,0
2018-11-21T05:58:32.619Z,0
2018-11-21T05:59:32.556Z,0
2018-11-21T06:00:32.557Z,0
2018-11-21T06:01:32.558Z,0
2018-11-21T06:02:32.563Z,0
2018-11-21T06:03:32.549Z,0
2018-11-21T06:04:32.504Z,0
2018-11-21T06:05:32.534Z,0
2018-11-21T06:06:32.489Z,0
2018-11-21T06:07:32.436Z,0
2018-11-21T06:08:32.464Z,0
2018-11-21T06:09:32.423Z,0
2018-11-21T06:10:32.430Z,0
2018-11-21T06:11:32.378Z,0
2018-11-21T06:12:32.665Z,0
2018-11-21T06:13:32.371Z,0
2018-11-21T06:14:32.373Z,0
2018-11-21T06:15:32.315Z,0
2018-11-21T06:16:32.313Z,0
2018-11-21T06:17:32.320Z,0
2018-11-21T06:18:32.306Z,0
2018-11-21T06:19:32.307Z,0
2018-11-21T06:20:32.258Z,0
2018-11-21T06:21:32.243Z,0
2018-11-21T06:22:32.200Z,0
2018-11-21T06:23:32.242Z,0
2018-11-21T06:24:32.192Z,0
2018-11-21T06:25:32.217Z,0
2018-11-21T06:26:32.151Z,0
2018-11-21T06:27:32.178Z,0
2018-11-21T06:28:32.120Z,0
2018-11-21T06:29:32.127Z,0
2018-11-21T06:30:31.841Z,0
2018-11-21T06:31:32.118Z,0
2018-11-21T06:32:32.075Z,0
2018-11-21T06:33:32.059Z,0
2018-11-21T06:34:37.578Z,5
2018-11-21T06:35:32.059Z,5
2018-11-21T06:36:32.002Z,5
2018-11-21T06:37:32.005Z,5
2018-11-21T06:38:31.953Z,5
2018-11-21T06:39:32.001Z,5
2018-11-21T06:40:31.961Z,5
2018-11-21T06:41:31.974Z,5
2018-11-21T06:42:31.909Z,10
2018-11-21T06:43:31.937Z,10
2018-11-21T06:44:32.115Z,10
2018-11-21T06:45:31.887Z,10
2018-11-21T06:46:31.852Z,10
2018-11-21T06:47:31.881Z,10
2018-11-21T06:48:31.850Z,15
2018-11-21T06:49:31.825Z,15
2018-11-21T06:50:31.786Z,15
2018-11-21T06:51:37.316Z,15
2018-11-21T06:52:31.810Z,15
2018-11-21T06:53:31.757Z,15
2018-11-21T06:54:31.776Z,15
2018-11-21T06:55:31.739Z,20
2018-11-21T06:56:31.728Z,20
2018-11-21T06:57:31.702Z,20
2018-11-21T06:58:31.671Z,25
2018-11-21T06:59:31.695Z,25
2018-11-21T07:00:31.618Z,25
2018-11-21T07:01:31.660Z,25
2018-11-21T07:02:31.611Z,25
2018-11-21T07:03:31.632Z,25
2018-11-21T07:04:31.598Z,25
2018-11-21T07:05:31.577Z,25
2018-11-21T07:06:31.547Z,30
2018-11-21T07:07:31.519Z,25
2018-11-21T07:08:31.542Z,25
2018-11-21T07:09:31.296Z,25
2018-11-21T07:10:31.527Z,25
2018-11-21T07:11:31.452Z,25
2018-11-21T07:12:31.478Z,25
2018-11-21T07:13:31.422Z,25
2018-11-21T07:14:31.454Z,25
2018-11-21T07:15:31.648Z,25
2018-11-21T07:16:31.444Z,30
2018-11-21T07:17:31.386Z,30
2018-11-21T07:18:31.401Z,30
2018-11-21T07:19:31.329Z,30
2018-11-21T07:20:31.342Z,30
2018-11-21T07:21:31.329Z,30
2018-11-21T07:22:31.326Z,35
2018-11-21T07:23:31.290Z,35
2018-11-21T07:24:33.567Z,35
2018-11-21T07:25:31.298Z,35
2018-11-21T07:26:31.343Z,40
2018-11-21T07:27:31.215Z,40
2018-11-21T07:28:31.239Z,40
2018-11-21T07:29:36.944Z,40
2018-11-21T07:30:31.227Z,45
2018-11-21T07:31:31.152Z,45
2018-11-21T07:32:31.195Z,45
2018-11-21T07:33:31.146Z,45
2018-11-21T07:34:31.167Z,50
2018-11-21T07:35:31.088Z,50
2018-11-21T07:36:31.106Z,55
2018-11-21T07:37:31.084Z,55
2018-11-21T07:38:31.087Z,60
2018-11-21T07:39:31.092Z,60
2018-11-21T07:40:31.030Z,65
2018-11-21T07:41:31.023Z,70
2018-11-21T07:42:31.825Z,65
2018-11-21T07:43:31.025Z,65
2018-11-21T07:44:30.972Z,65
2018-11-21T07:45:31.016Z,65
2018-11-21T07:46:31.189Z,60
2018-11-21T07:47:36.095Z,65
2018-11-21T07:48:30.908Z,65
2018-11-21T07:49:30.910Z,65
2018-11-21T07:50:30.913Z,65
2018-11-21T07:51:30.857Z,65
2018-11-21T07:52:30.851Z,65
2018-11-21T07:53:30.849Z,65
2018-11-21T07:54:30.859Z,75
2018-11-21T07:55:30.851Z,80
2018-11-21T07:56:30.791Z,80
2018-11-21T07:57:31.772Z,80
2018-11-21T07:58:30.741Z,85
2018-11-21T07:59:30.805Z,85
2018-11-21T08:00:30.738Z,85
2018-11-21T08:01:30.732Z,90
2018-11-21T08:02:30.730Z,95
2018-11-21T08:03:30.727Z,95
2018-11-21T08:04:30.718Z,100
2018-11-21T08:05:30.712Z,105
2018-11-21T08:06:30.669Z,100
2018-11-21T08:07:30.604Z,105
2018-11-21T08:08:30.613Z,110
2018-11-21T08:09:30.630Z,110
2018-11-21T08:10:30.359Z,115
2018-11-21T08:11:30.611Z,120
2018-11-21T08:12:30.556Z,130
2018-11-21T08:13:30.552Z,140
2018-11-21T08:14:30.552Z,145
2018-11-21T08:15:30.495Z,140
2018-11-21T08:16:30.523Z,125
2018-11-21T08:17:30.718Z,120
2018-11-21T08:18:30.499Z,115
2018-11-21T08:19:30.492Z,120
2018-11-21T08:20:30.483Z,120
2018-11-21T08:21:30.436Z,125
2018-11-21T08:22:30.441Z,125
2018-11-21T08:23:30.381Z,120
2018-11-21T08:24:30.404Z,120
2018-11-21T08:25:30.381Z,120
2018-11-21T08:26:30.389Z,115
2018-11-21T08:27:30.385Z,110
2018-11-21T08:28:30.335Z,110
2018-11-21T08:29:30.317Z,115
2018-11-21T08:30:30.283Z,115
2018-11-21T08:31:30.323Z,115
2018-11-21T08:32:30.270Z,125
2018-11-21T08:33:36.207Z,120
2018-11-21T08:34:30.236Z,115
2018-11-21T08:35:30.264Z,110
2018-11-21T08:36:30.191Z,100
2018-11-21T08:37:30.210Z,90
2018-11-21T08:38:29.925Z,95
2018-11-21T08:39:30.204Z,95
2018-11-21T08:40:30.149Z,90
2018-11-21T08:41:30.142Z,90
2018-11-21T08:42:30.164Z,90
2018-11-21T08:43:30.148Z,95
2018-11-21T08:44:30.097Z,95
2018-11-21T08:45:29.833Z,95
2018-11-21T08:46:30.043Z,100
2018-11-21T08:47:30.091Z,100
2018-11-21T08:48:30.335Z,105
2018-11-21T08:49:30.073Z,110
2018-11-21T08:50:30.001Z,115
2018-11-21T08:51:30.033Z,110
2018-11-21T08:52:29.957Z,110
2018-11-21T08:53:29.980Z,115
2018-11-21T08:54:29.950Z,120
2018-11-21T08:55:29.986Z,115
2018-11-21T08:56:29.944Z,130
2018-11-21T08:57:29.931Z,130
2018-11-21T08:58:29.886Z,125
2018-11-21T08:59:29.866Z,110
2018-11-21T09:00:29.882Z,120
2018-11-21T09:01:29.856Z,120
2018-11-21T09:02:29.874Z,120
2018-11-21T09:03:29.809Z,120
2018-11-21T09:04:29.829Z,115
2018-11-21T09:05:29.805Z,115
2018-11-21T09:06:29.769Z,115
2018-11-21T09:07:29.837Z,120
2018-11-21T09:08:29.735Z,120
2018-11-21T09:09:30.059Z,120
2018-11-21T09:10:29.717Z,125
2018-11-21T09:11:29.538Z,120
2018-11-21T09:12:29.719Z,120
2018-11-21T09:13:29.693Z,125
2018-11-21T09:14:29.657Z,120
2018-11-21T09:15:29.631Z,130
2018-11-21T09:16:29.658Z,130
2018-11-21T09:17:29.639Z,125
2018-11-21T09:18:29.648Z,125
2018-11-21T09:19:29.579Z,120
2018-11-21T09:20:29.848Z,120
2018-11-21T09:21:29.539Z,115
2018-11-21T09:22:29.735Z,115
2018-11-21T09:23:29.526Z,115
2018-11-21T09:24:29.562Z,110
2018-11-21T09:25:29.512Z,120
2018-11-21T09:26:29.525Z,110
2018-11-21T09:27:29.456Z,115
2018-11-21T09:28:29.461Z,110
2018-11-21T09:29:29.799Z,105
2018-11-21T09:30:29.468Z,95
2018-11-21T09:31:29.410Z,95
2018-11-21T09:32:29.425Z,95
2018-11-21T09:33:29.408Z,90
2018-11-21T09:34:29.421Z,90
2018-11-21T09:35:29.098Z,80
2018-11-21T09:36:29.374Z,75
2018-11-21T09:37:29.314Z,75
2018-11-21T09:38:29.350Z,80
2018-11-21T09:39:29.296Z,75
2018-11-21T09:40:29.328Z,70
2018-11-21T09:41:29.294Z,80
2018-11-21T09:42:29.288Z,80
2018-11-21T09:43:29.230Z,75
2018-11-21T09:44:29.260Z,75
2018-11-21T09:45:29.234Z,80
2018-11-21T09:46:29.247Z,85
2018-11-21T09:47:29.177Z,95
2018-11-21T09:48:29.239Z,85
2018-11-21T09:49:29.174Z,95
2018-11-21T09:50:29.197Z,85
2018-11-21T09:51:29.366Z,85
2018-11-21T09:52:29.145Z,85
2018-11-21T09:53:29.091Z,85
2018-11-21T09:54:29.124Z,80
2018-11-21T09:55:29.064Z,70
2018-11-21T09:56:29.084Z,70
2018-11-21T09:57:29.066Z,70
2018-11-21T09:58:29.027Z,75
2018-11-21T09:59:30.245Z,70
2018-11-21T10:00:29.042Z,80
2018-11-21T10:01:29.007Z,85
2018-11-21T10:02:28.971Z,70
2018-11-21T10:03:28.946Z,75
2018-11-21T10:04:28.971Z,70
2018-11-21T10:05:28.695Z,70
2018-11-21T10:06:28.706Z,65
2018-11-21T10:07:28.890Z,65
2018-11-21T10:08:28.914Z,70
2018-11-21T10:09:28.853Z,65
2018-11-21T10:10:28.887Z,65
2018-11-21T10:11:28.839Z,65
2018-11-21T10:12:28.879Z,60
2018-11-21T10:13:28.839Z,65
2018-11-21T10:14:28.828Z,60
2018-11-21T10:15:28.768Z,65
2018-11-21T10:16:28.784Z,65
2018-11-21T10:17:28.764Z,65
2018-11-21T10:18:29.422Z,70
2018-11-21T10:19:28.763Z,70
2018-11-21T10:20:28.711Z,70
2018-11-21T10:21:28.708Z,75
2018-11-21T10:22:28.999Z,80
2018-11-21T10:23:28.661Z,75
2018-11-21T10:24:28.679Z,75
2018-11-21T10:25:28.624Z,75
2018-11-21T10:26:28.656Z,80
2018-11-21T10:27:28.348Z,70
2018-11-21T10:28:28.645Z,75
2018-11-21T10:29:28.600Z,85
2018-11-21T10:30:28.599Z,75
2018-11-21T10:31:28.533Z,70
2018-11-21T10:32:28.545Z,85
2018-11-21T10:33:28.531Z,95
2018-11-21T10:34:28.535Z,85
2018-11-21T10:35:28.537Z,85
2018-11-21T10:36:28.484Z,90
2018-11-21T10:37:28.476Z,105
2018-11-21T10:38:28.442Z,110
2018-11-21T10:39:28.476Z,95
2018-11-21T10:40:28.420Z,90
2018-11-21T10:41:28.453Z,110
2018-11-21T10:42:28.399Z,115
2018-11-21T10:43:32.987Z,105
2018-11-21T10:44:28.349Z,110
2018-11-21T10:45:28.373Z,115
2018-11-21T10:46:28.333Z,115
2018-11-21T10:47:28.354Z,115
2018-11-21T10:48:28.304Z,110
2018-11-21T10:49:28.293Z,105
2018-11-21T10:50:28.314Z,100
2018-11-21T10:51:28.299Z,115
2018-11-21T10:52:31.565Z,110
2018-11-21T10:53:28.489Z,120
2018-11-21T10:54:28.192Z,115
2018-11-21T10:55:28.243Z,120
2018-11-21T10:56:28.182Z,110
2018-11-21T10:57:28.217Z,105
2018-11-21T10:58:28.156Z,105
2018-11-21T10:59:28.192Z,110
2018-11-21T11:00:28.114Z,115
2018-11-21T11:01:28.128Z,105
2018-11-21T11:02:28.096Z,105
2018-11-21T11:03:28.128Z,110
2018-11-21T11:04:28.092Z,110
2018-11-21T11:05:28.122Z,120
2018-11-21T11:06:28.037Z,135
2018-11-21T11:07:28.011Z,120
2018-11-21T11:08:28.038Z,125
2018-11-21T11:09:28.009Z,135
2018-11-21T11:10:28.020Z,145
2018-11-21T11:11:27.956Z,135
2018-11-21T11:12:27.981Z,135
2018-11-21T11:13:28.999Z,150
2018-11-21T11:14:27.917Z,140
2018-11-21T11:15:27.943Z,155
2018-11-21T11:16:27.896Z,180
2018-11-21T11:17:27.900Z,185
2018-11-21T11:18:27.874Z,175
2018-11-21T11:19:27.894Z,180
2018-11-21T11:20:27.881Z,170
2018-11-21T11:21:27.840Z,180
2018-11-21T11:22:27.807Z,175
2018-11-21T11:23:27.782Z,170
2018-11-21T11:24:28.057Z,180
2018-11-21T11:25:27.785Z,170
2018-11-21T11:26:27.749Z,160
2018-11-21T11:27:27.779Z,190
2018-11-21T11:28:27.723Z,210
2018-11-21T11:29:27.753Z,170
2018-11-21T11:30:27.694Z,185
2018-11-21T11:31:27.720Z,185
2018-11-21T11:32:27.649Z,170
2018-11-21T11:33:27.674Z,165
2018-11-21T11:34:27.644Z,160
2018-11-21T11:35:27.671Z,160
2018-11-21T11:36:27.639Z,155
2018-11-21T11:37:27.612Z,140
2018-11-21T11:38:27.584Z,120
2018-11-21T11:39:27.616Z,120
2018-11-21T11:40:27.561Z,130
2018-11-21T11:41:27.565Z,125
2018-11-21T11:42:27.518Z,110
2018-11-21T11:43:27.558Z,115
2018-11-21T11:44:27.502Z,110
2018-11-21T11:45:27.537Z,105
2018-11-21T11:46:27.475Z,105
2018-11-21T11:47:27.501Z,100
2018-11-21T11:48:27.425Z,95
2018-11-21T11:49:27.192Z,100
2018-11-21T11:50:27.423Z,95
2018-11-21T11:51:27.462Z,90
2018-11-21T11:52:27.416Z,85
2018-11-21T11:53:27.400Z,90
2018-11-21T11:54:27.101Z,90
2018-11-21T11:55:27.582Z,100
2018-11-21T11:56:27.361Z,95
2018-11-21T11:57:27.337Z,90
2018-11-21T11:58:27.351Z,90
2018-11-21T11:59:27.286Z,85
2018-11-21T12:00:27.320Z,85
2018-11-21T12:01:27.249Z,85
2018-11-21T12:02:27.032Z,85
2018-11-21T12:03:27.224Z,90
2018-11-21T12:04:27.255Z,95
2018-11-21T12:05:27.225Z,90
2018-11-21T12:06:27.193Z,95
2018-11-21T12:07:27.231Z,95
2018-11-21T12:08:27.191Z,85
2018-11-21T12:09:27.169Z,90
2018-11-21T12:10:27.139Z,90
2018-11-21T12:11:27.122Z,85
2018-11-21T12:12:27.149Z,80
2018-11-21T12:13:27.113Z,85
2018-11-21T12:14:27.123Z,100
2018-11-21T12:15:27.051Z,95
2018-11-21T12:16:27.076Z,95
2018-11-21T12:17:27.028Z,90
2018-11-21T12:18:27.057Z,90
2018-11-21T12:19:27.006Z,90
2018-11-21T12:20:27.042Z,90
2018-11-21T12:21:27.002Z,90
2018-11-21T12:22:26.997Z,90
2018-11-21T12:23:26.936Z,90
2018-11-21T12:24:26.946Z,90
2018-11-21T12:25:26.942Z,90
2018-11-21T12:26:26.937Z,95
2018-11-21T12:27:27.193Z,95
2018-11-21T12:28:26.934Z,95
2018-11-21T12:29:26.883Z,100
2018-11-21T12:30:26.893Z,105
2018-11-21T12:31:26.827Z,110
2018-11-21T12:32:26.848Z,100
2018-11-21T12:33:26.813Z,90
2018-11-21T12:34:26.828Z,95
2018-11-21T12:35:26.781Z,90
2018-11-21T12:36:26.826Z,80
2018-11-21T12:37:26.770Z,85
2018-11-21T12:38:26.771Z,90
2018-11-21T12:39:26.709Z,90
2018-11-21T12:40:26.717Z,100
2018-11-21T12:41:26.706Z,100
2018-11-21T12:42:26.710Z,90
2018-11-21T12:43:26.718Z,90
2018-11-21T12:44:26.656Z,95
2018-11-21T12:45:26.657Z,100
2018-11-21T12:46:26.612Z,100
2018-11-21T12:47:26.653Z,100
2018-11-21T12:48:26.614Z,105
2018-11-21T12:49:26.627Z,100
2018-11-21T12:50:26.559Z,95
2018-11-21T12:51:26.591Z,105
2018-11-21T12:52:26.517Z,100
2018-11-21T12:53:26.536Z,105
2018-11-21T12:54:26.513Z,110
2018-11-21T12:55:26.534Z,100
2018-11-21T12:56:26.482Z,95
2018-11-21T12:57:26.221Z,105
2018-11-21T12:58:27.057Z,95
2018-11-21T12:59:26.474Z,100
2018-11-21T13:00:26.422Z,100
2018-11-21T13:01:26.425Z,100
2018-11-21T13:02:26.377Z,105
2018-11-21T13:03:26.418Z,115
2018-11-21T13:04:26.366Z,115
2018-11-21T13:05:26.396Z,115
2018-11-21T13:06:26.328Z,110
2018-11-21T13:07:26.357Z,100
2018-11-21T13:08:26.295Z,100
2018-11-21T13:09:26.311Z,95
2018-11-21T13:10:26.276Z,90
2018-11-21T13:11:26.304Z,95
2018-11-21T13:12:26.276Z,100
2018-11-21T13:13:26.247Z,95
2018-11-21T13:14:26.227Z,90
2018-11-21T13:15:26.197Z,85
2018-11-21T13:16:26.220Z,80
2018-11-21T13:17:26.195Z,70
2018-11-21T13:18:26.208Z,70
2018-11-21T13:19:26.133Z,70
2018-11-21T13:20:26.160Z,70
2018-11-21T13:21:26.140Z,70
2018-11-21T13:22:26.110Z,70
2018-11-21T13:23:26.133Z,70
2018-11-21T13:24:26.063Z,70
2018-11-21T13:25:26.084Z,70
2018-11-21T13:26:26.051Z,70
2018-11-21T13:27:26.074Z,70
2018-11-21T13:28:26.051Z,70
2018-11-21T13:29:26.644Z,75
2018-11-21T13:30:25.990Z,70
2018-11-21T13:31:25.969Z,60
2018-11-21T13:32:25.987Z,60
2018-11-21T13:33:25.966Z,55
2018-11-21T13:34:25.980Z,55
2018-11-21T13:35:25.905Z,55
2018-11-21T13:36:25.924Z,55
2018-11-21T13:37:25.867Z,55
2018-11-21T13:38:32.641Z,55
2018-11-21T13:39:25.845Z,50
2018-11-21T13:40:25.898Z,50
2018-11-21T13:41:25.852Z,50
2018-11-21T13:42:30.419Z,50
2018-11-21T13:43:25.804Z,50
2018-11-21T13:44:25.801Z,50
2018-11-21T13:45:25.789Z,50
2018-11-21T13:46:25.797Z,45
2018-11-21T13:47:25.740Z,50
2018-11-21T13:48:25.755Z,55
2018-11-21T13:49:25.733Z,55
2018-11-21T13:50:25.791Z,55
2018-11-21T13:51:25.669Z,50
2018-11-21T13:52:25.698Z,50
2018-11-21T13:53:25.641Z,50
2018-11-21T13:54:25.670Z,50
2018-11-21T13:55:25.622Z,50
2018-11-21T13:56:25.658Z,50
2018-11-21T13:57:25.608Z,45
2018-11-21T13:58:25.615Z,45
2018-11-21T13:59:25.548Z,45
2018-11-21T14:00:25.557Z,45
2018-11-21T14:01:25.573Z,40
2018-11-21T14:02:25.557Z,40
2018-11-21T14:03:25.554Z,35
2018-11-21T14:04:25.501Z,35
2018-11-21T14:05:25.503Z,35
2018-11-21T14:06:25.454Z,30
2018-11-21T14:07:25.497Z,30
2018-11-21T14:08:25.442Z,30
2018-11-21T14:09:25.473Z,30
2018-11-21T14:10:25.412Z,30
2018-11-21T14:11:25.520Z,30
2018-11-21T14:12:25.398Z,25
2018-11-21T14:13:25.420Z,25
2018-11-21T14:14:25.385Z,25
2018-11-21T14:15:25.549Z,25
2018-11-21T14:16:25.324Z,25
2018-11-21T14:17:32.420Z,25
2018-11-21T14:18:25.325Z,20
2018-11-21T14:19:25.325Z,20
2018-11-21T14:20:25.269Z,20
2018-11-21T14:21:25.268Z,20
2018-11-21T14:22:25.237Z,20
2018-11-21T14:23:25.278Z,20